Rechercher aéroport 
image banner adimage banner adimage banner ad
image banner ad

KSAN - San Diego Intl

Situé à San Diego, United States

ICAO - SAN, IATA - SAN

Données fournies par Airmate  

Information générale

Coordonnées: N32°44'1" W117°11'23"
Élévation : 17 feet MSL.
Variation magnétique : 11° East
Voir autres Aéroports à California

Données opérationnelles

Special qualification required
Heure actuelle UTC:
Heure actuelle locale:
Météo
METAR: KSAN 291351Z 35004KT 10SM BKN007 BKN250 21/17 A2995 RMK AO2 SLP140 T02060172
TAF: KSAN 291120Z 2912/3018 31005KT P6SM SCT009 TEMPO 2912/2915 BKN008 FM291800 29010KT P6SM FEW010 FM300300 VRB04KT P6SM SCT010 FM300700 VRB04KT P6SM BKN008 FM301600 VRB04KT P6SM SCT010
Voir NOTAMs / SUP AIP / TFR affectant cet aéroport [VIEW]
Fréquences de communication: [VIEW]

Pistes:

Identifiant RWYQFULongueur (ft)Largeur (ft)SurfaceLDA (ft)
09106°9400200OTHER7280
27286°9400200OTHER7591

Coordonnées de l'aéroport

Adresse: San Diego United States

Vue satellite de KSAN